Time;durP1;ratioP1;P1;durP2;ratioP2;P2;SDS_P1;SDS_P2;PMS_P1;PMS_P2;Temp;Humidity;BMP_temperature;BMP_pressure;BME280_temperature;BME280_humidity;BME280_pressure;Samples;Min_cycle;Max_cycle;Signal;HPM_P1;HPM_P2
2021/09/13 00:03:03;;;;;;;13.20;12.10;;;;;;;16.89;79.33;100442.42;226918;1210;139820;-72
2021/09/13 00:08:05;;;;;;;12.90;11.70;;;;;;;16.95;78.94;100444.38;226668;1211;139374;-72
2021/09/13 00:13:07;;;;;;;12.60;11.50;;;;;;;16.94;78.92;100445.82;227313;1210;139326;-71
2021/09/13 00:18:09;;;;;;;13.00;11.80;;;;;;;16.93;78.82;100447.20;226773;1210;138559;-72
2021/09/13 00:23:10;;;;;;;12.80;11.60;;;;;;;16.81;79.30;100440.26;226709;1210;139404;-72
2021/09/13 00:28:12;;;;;;;13.00;11.80;;;;;;;16.69;79.91;100438.23;226743;1207;139635;-72
2021/09/13 00:33:14;;;;;;;13.30;12.10;;;;;;;16.66;80.16;100440.37;227053;1202;139769;-72
2021/09/13 00:38:16;;;;;;;13.40;12.30;;;;;;;16.61;80.32;100444.73;226784;1211;139032;-73
2021/09/13 00:43:17;;;;;;;14.00;12.70;;;;;;;16.61;80.27;100442.62;226925;1202;138828;-72
2021/09/13 00:48:19;;;;;;;13.40;12.20;;;;;;;16.60;80.29;100443.77;226721;1210;139130;-71
2021/09/13 00:53:21;;;;;;;13.50;12.20;;;;;;;16.56;80.37;100449.40;226704;1211;139697;-72
2021/09/13 00:58:27;;;;;;;14.00;12.80;;;;;;;16.56;80.49;100443.61;226757;1210;139856;-72
2021/09/13 01:03:29;;;;;;;14.90;13.10;;;;;;;16.71;79.75;100436.90;226968;1204;139552;-71
2021/09/13 01:08:30;;;;;;;14.30;13.10;;;;;;;16.62;79.94;100438.33;226820;1210;138523;-70
2021/09/13 01:13:34;;;;;;;15.00;13.70;;;;;;;16.63;79.74;100433.46;228981;1207;138672;-71
2021/09/13 01:18:36;;;;;;;14.30;12.90;;;;;;;16.62;79.99;100436.60;226690;1205;139606;-72
2021/09/13 01:23:37;;;;;;;14.30;13.00;;;;;;;16.59;79.88;100435.55;227023;1210;139640;-72
2021/09/13 01:28:39;;;;;;;14.00;12.60;;;;;;;16.44;80.74;100432.98;226985;1209;139432;-70
2021/09/13 01:33:41;;;;;;;14.20;12.80;;;;;;;16.36;81.46;100435.49;226832;1204;138678;-71
2021/09/13 01:38:43;;;;;;;14.70;13.00;;;;;;;16.37;81.42;100438.05;227355;1202;139158;-70
2021/09/13 01:43:45;;;;;;;15.90;14.30;;;;;;;16.54;80.66;100440.80;226758;1209;139274;-70
2021/09/13 01:48:47;;;;;;;15.00;13.70;;;;;;;16.53;80.57;100445.22;226649;1211;139276;-72
2021/09/13 01:53:48;;;;;;;15.30;14.00;;;;;;;16.52;80.65;100438.73;226668;1211;140655;-71
2021/09/13 01:58:50;;;;;;;14.80;13.50;;;;;;;16.58;80.31;100435.83;226646;1202;138950;-72
2021/09/13 02:03:52;;;;;;;15.80;14.30;;;;;;;16.56;80.12;100435.36;226693;1210;138887;-73
2021/09/13 02:08:53;;;;;;;15.10;13.60;;;;;;;16.25;81.20;100438.86;226695;1210;139567;-73
2021/09/13 02:13:55;;;;;;;14.90;13.50;;;;;;;16.13;81.94;100437.00;226760;1205;139346;-73
2021/09/13 02:18:56;;;;;;;15.10;13.60;;;;;;;16.15;81.87;100437.40;226858;1208;139368;-72
2021/09/13 02:23:58;;;;;;;14.90;13.60;;;;;;;16.07;82.09;100436.58;226674;1209;139269;-71
2021/09/13 02:29:00;;;;;;;15.70;14.40;;;;;;;16.05;82.22;100434.13;226669;1210;140064;-72
2021/09/13 02:34:01;;;;;;;15.60;14.20;;;;;;;16.04;82.29;100435.75;226708;1210;139689;-73
2021/09/13 02:39:03;;;;;;;14.70;13.40;;;;;;;15.96;82.78;100440.12;226680;1211;139745;-73
2021/09/13 02:44:05;;;;;;;15.90;14.50;;;;;;;15.92;82.91;100445.02;226965;1204;139003;-71
2021/09/13 02:49:07;;;;;;;15.70;14.20;;;;;;;15.91;82.75;100443.89;226706;1210;139397;-72
2021/09/13 02:54:11;;;;;;;18.20;16.40;;;;;;;15.92;82.61;100441.70;226676;1208;139349;-71
2021/09/13 02:59:13;;;;;;;17.20;15.70;;;;;;;15.93;82.69;100440.43;226736;1207;140259;-70
2021/09/13 03:04:14;;;;;;;15.40;14.00;;;;;;;15.90;82.65;100437.64;226712;1211;139475;-72
2021/09/13 03:09:17;;;;;;;16.20;14.70;;;;;;;15.91;82.36;100439.30;226694;1211;138949;-72
2021/09/13 03:14:18;;;;;;;15.90;14.30;;;;;;;15.85;82.41;100431.18;226672;1207;139097;-72
2021/09/13 03:19:20;;;;;;;16.30;14.60;;;;;;;15.76;82.71;100435.59;226546;1210;139747;-72
2021/09/13 03:24:22;;;;;;;15.80;14.40;;;;;;;15.74;82.98;100436.55;226581;1210;139534;-72
2021/09/13 03:29:23;;;;;;;16.50;15.10;;;;;;;15.75;83.32;100439.59;226695;1211;139409;-72
2021/09/13 03:34:25;;;;;;;16.00;14.60;;;;;;;15.79;82.76;100440.09;226597;1211;139318;-70
2021/09/13 03:39:27;;;;;;;16.70;15.20;;;;;;;15.64;83.29;100440.38;226642;1211;139031;-73
2021/09/13 03:44:28;;;;;;;16.50;14.90;;;;;;;15.57;83.60;100444.31;226596;1211;139665;-71
2021/09/13 03:49:30;;;;;;;15.70;14.10;;;;;;;15.53;83.75;100449.38;226629;1211;139333;-72
2021/09/13 03:54:32;;;;;;;17.20;15.50;;;;;;;15.60;83.45;100454.36;226606;1211;139324;-73
2021/09/13 03:59:33;;;;;;;16.40;14.80;;;;;;;15.57;83.51;100454.22;226759;1206;138708;-72
2021/09/13 04:04:36;;;;;;;16.80;15.10;;;;;;;15.54;83.61;100457.83;226722;1211;139088;-71
2021/09/13 04:14:40;;;;;;;16.50;15.00;;;;;;;15.53;83.41;100461.11;226678;1203;140125;-70
2021/09/13 04:19:42;;;;;;;16.40;14.80;;;;;;;15.50;83.43;100465.70;226771;1211;139691;-73
2021/09/13 04:24:44;;;;;;;14.80;13.50;;;;;;;15.47;83.65;100467.21;226595;1206;139154;-72
2021/09/13 04:29:46;;;;;;;16.80;15.30;;;;;;;15.35;84.06;100469.25;227607;1211;139423;-74
2021/09/13 04:34:47;;;;;;;15.60;14.10;;;;;;;15.35;84.17;100468.59;227809;1211;140341;-70
2021/09/13 04:39:49;;;;;;;18.00;16.30;;;;;;;15.42;84.23;100475.75;226456;1211;139837;-71
2021/09/13 04:44:51;;;;;;;16.10;14.70;;;;;;;15.48;84.18;100472.35;226622;1210;140001;-72
2021/09/13 04:49:53;;;;;;;16.30;14.70;;;;;;;15.53;83.86;100479.06;226695;1209;139574;-70
2021/09/13 04:54:54;;;;;;;15.80;14.40;;;;;;;15.49;83.85;100480.19;226784;1202;138463;-72
2021/09/13 04:59:56;;;;;;;16.60;15.10;;;;;;;15.44;84.13;100485.08;226715;1202;138644;-72
2021/09/13 05:04:57;;;;;;;17.00;15.40;;;;;;;15.42;84.39;100491.89;226706;1209;139061;-72
2021/09/13 05:10:01;;;;;;;16.50;15.00;;;;;;;15.46;84.43;100495.32;226744;1209;140101;-72
2021/09/13 05:15:03;;;;;;;15.10;13.60;;;;;;;15.52;84.23;100497.28;226847;1209;139498;-73
2021/09/13 05:20:06;;;;;;;16.60;15.00;;;;;;;15.58;83.94;100496.05;227454;1202;139921;-75
2021/09/13 05:25:08;;;;;;;16.70;15.20;;;;;;;15.64;83.93;100493.13;227737;1202;139800;-75
2021/09/13 05:30:11;;;;;;;16.50;14.90;;;;;;;15.63;83.80;100494.88;227737;1201;138632;-78
2021/09/13 05:35:12;;;;;;;17.70;15.80;;;;;;;15.53;84.49;100493.41;227786;1205;138742;-74
2021/09/13 05:40:14;;;;;;;16.30;14.70;;;;;;;15.57;84.59;100498.46;227475;1209;140249;-75
2021/09/13 05:45:16;;;;;;;16.30;14.70;;;;;;;15.67;84.34;100500.65;227432;1202;140270;-75
2021/09/13 05:50:18;;;;;;;16.10;14.60;;;;;;;15.69;84.45;100508.02;227498;1202;139621;-73
2021/09/13 05:55:21;;;;;;;17.80;16.00;;;;;;;15.68;84.84;100511.36;226930;1203;139324;-73
2021/09/13 06:00:23;;;;;;;17.30;15.50;;;;;;;15.75;84.27;100508.59;227434;1204;138818;-73
2021/09/13 06:05:24;;;;;;;17.80;16.20;;;;;;;15.71;84.63;100511.02;227150;1209;139319;-73
2021/09/13 06:10:26;;;;;;;19.50;17.50;;;;;;;15.67;84.74;100509.36;226753;1209;138507;-73
2021/09/13 06:15:28;;;;;;;19.90;17.30;;;;;;;15.71;84.97;100510.13;226736;1204;139394;-74
2021/09/13 06:20:30;;;;;;;19.00;17.20;;;;;;;15.78;85.07;100506.75;226721;1203;139505;-74
2021/09/13 06:25:32;;;;;;;19.40;17.50;;;;;;;15.93;84.80;100505.52;227165;1210;139510;-72
2021/09/13 06:30:34;;;;;;;19.10;17.30;;;;;;;16.08;84.31;100507.95;226747;1211;139478;-69
2021/09/13 06:35:36;;;;;;;18.80;16.90;;;;;;;16.17;84.07;100506.70;226690;1211;139460;-73
2021/09/13 06:40:38;;;;;;;20.50;18.40;;;;;;;16.15;84.59;100508.52;226821;1210;139647;-72
2021/09/13 06:45:45;;;;;;;21.80;19.50;;;;;;;16.21;84.47;100504.13;226811;1210;138416;-73
2021/09/13 06:50:47;;;;;;;20.60;18.50;;;;;;;16.15;85.07;100504.43;226656;1203;139437;-73
2021/09/13 06:55:48;;;;;;;19.00;17.20;;;;;;;16.26;84.55;100506.70;226666;1210;139366;-73
2021/09/13 07:00:53;;;;;;;18.80;16.90;;;;;;;16.32;84.38;100508.38;226754;1203;142806;-74
2021/09/13 07:05:54;;;;;;;19.50;17.60;;;;;;;16.46;84.35;100509.35;227206;1210;139650;-75
2021/09/13 07:10:56;;;;;;;19.00;17.20;;;;;;;16.60;84.29;100512.04;226945;1210;139834;-70
2021/09/13 07:15:58;;;;;;;18.10;16.40;;;;;;;16.73;83.95;100518.63;226822;1210;140106;-76
2021/09/13 07:20:59;;;;;;;18.40;16.70;;;;;;;16.87;83.38;100517.29;227426;1203;139657;-74
2021/09/13 07:26:01;;;;;;;22.50;20.50;;;;;;;16.89;83.74;100518.77;227123;1203;139434;-72
2021/09/13 07:31:03;;;;;;;22.40;20.40;;;;;;;16.88;84.27;100518.05;226732;1210;139208;-73
2021/09/13 07:36:05;;;;;;;22.50;20.40;;;;;;;16.89;84.44;100520.54;226881;1210;139571;-73
2021/09/13 07:41:07;;;;;;;17.60;15.80;;;;;;;17.00;83.75;100523.88;226872;1203;140126;-73
2021/09/13 07:46:08;;;;;;;16.80;15.10;;;;;;;17.18;83.00;100522.21;227321;1210;139557;-71
2021/09/13 07:51:10;;;;;;;15.70;14.20;;;;;;;17.26;82.59;100519.66;227738;1203;139767;-72
2021/09/13 07:56:12;;;;;;;15.20;13.70;;;;;;;17.35;81.81;100524.58;227098;1203;140009;-72
2021/09/13 08:01:14;;;;;;;14.80;13.40;;;;;;;17.36;81.74;100528.36;226835;1203;140250;-74
2021/09/13 08:06:16;;;;;;;14.80;13.40;;;;;;;17.37;81.50;100530.17;227463;1202;140064;-73
2021/09/13 08:11:17;;;;;;;15.00;13.60;;;;;;;17.45;81.38;100539.23;227054;1210;139754;-74
2021/09/13 08:16:20;;;;;;;17.10;15.30;;;;;;;17.57;81.21;100540.94;226951;1211;139046;-74
2021/09/13 08:21:22;;;;;;;19.30;17.50;;;;;;;17.73;81.17;100542.08;226981;1211;139419;-73
2021/09/13 08:26:23;;;;;;;11.60;10.50;;;;;;;17.87;80.51;100544.02;226639;1210;139345;-70
2021/09/13 08:31:25;;;;;;;13.80;12.40;;;;;;;18.03;79.65;100543.38;227044;1203;139521;-73
2021/09/13 08:36:27;;;;;;;16.40;14.80;;;;;;;18.09;79.05;100545.88;227269;1203;139421;-74
2021/09/13 08:41:28;;;;;;;13.20;12.00;;;;;;;18.24;78.81;100547.80;226950;1203;139885;-73
2021/09/13 08:46:45;;;;;;;13.80;12.60;;;;;;;18.38;77.72;100542.25;227266;1203;138459;-74
2021/09/13 08:51:47;;;;;;;12.50;11.40;;;;;;;18.45;77.30;100551.59;227672;1204;138949;-73
2021/09/13 08:56:52;;;;;;;12.80;11.70;;;;;;;18.54;77.06;100553.14;227728;1210;141853;-72
2021/09/13 09:01:55;;;;;;;10.30;9.30;;;;;;;18.70;74.41;100556.90;227614;1203;139878;-72
2021/09/13 09:07:08;;;;;;;11.90;10.90;;;;;;;18.82;73.16;100558.13;227573;1202;139541;-73
2021/09/13 09:12:10;;;;;;;12.00;10.90;;;;;;;18.89;72.92;100554.48;226718;1203;139569;-73
2021/09/13 09:17:26;;;;;;;10.20;9.30;;;;;;;19.01;71.47;100555.74;227271;1209;138939;-72
2021/09/13 09:22:31;;;;;;;10.20;9.20;;;;;;;19.17;69.82;100549.65;227199;1204;139255;-74
2021/09/13 09:27:53;;;;;;;9.80;9.00;;;;;;;19.34;70.01;100545.77;227261;1209;138972;-73
2021/09/13 09:33:18;;;;;;;9.10;8.20;;;;;;;19.46;68.95;100546.85;227733;1204;138181;-72
2021/09/13 09:38:39;;;;;;;12.00;10.80;;;;;;;19.49;69.80;100545.33;227412;1202;138416;-74
2021/09/13 09:43:56;;;;;;;9.50;8.60;;;;;;;19.69;68.59;100543.83;227736;1203;139799;-73
2021/09/13 09:49:18;;;;;;;9.30;8.50;;;;;;;20.05;68.22;100535.91;227343;1202;139461;-73
2021/09/13 09:54:29;;;;;;;10.70;9.70;;;;;;;20.06;67.97;100540.94;227176;1209;139255;-75
2021/09/13 09:59:36;;;;;;;9.70;8.70;;;;;;;20.01;67.85;100542.24;227760;1209;139032;-74
2021/09/13 10:04:37;;;;;;;9.80;9.00;;;;;;;19.69;68.02;100548.95;227700;1202;139204;-75
2021/09/13 10:09:41;;;;;;;9.90;9.00;;;;;;;19.49;69.09;100541.94;227941;1204;138632;-74
2021/09/13 10:14:43;;;;;;;8.60;7.80;;;;;;;19.59;69.36;100543.80;227722;1203;139277;-76
2021/09/13 10:19:44;;;;;;;7.50;6.90;;;;;;;19.93;67.10;100543.01;227802;1203;139642;-75
2021/09/13 10:24:48;;;;;;;8.20;7.40;;;;;;;20.27;66.04;100540.52;227444;1204;139614;-73
2021/09/13 10:30:17;;;;;;;6.80;6.20;;;;;;;20.42;65.17;100539.76;228722;1209;138190;-75
2021/09/13 10:35:40;;;;;;;7.30;6.60;;;;;;;20.49;63.10;100542.22;231647;1202;138639;-74
2021/09/13 10:40:41;;;;;;;6.50;6.00;;;;;;;20.49;63.39;100535.52;228661;1209;138154;-72
2021/09/13 10:45:43;;;;;;;7.70;7.00;;;;;;;20.89;61.98;100528.52;226872;1209;138578;-72
2021/09/13 10:50:49;;;;;;;7.70;7.00;;;;;;;20.70;62.31;100527.40;226918;1209;138786;-72
2021/09/13 10:55:59;;;;;;;8.70;7.50;;;;;;;20.23;63.68;100533.66;226875;1209;138677;-75
2021/09/13 11:01:06;;;;;;;16.50;14.80;;;;;;;19.86;66.61;100539.34;227807;1203;138429;-73
2021/09/13 11:11:10;;;;;;;11.50;9.20;;;;;;;19.49;68.32;100539.84;228578;1204;138882;-74
2021/09/13 11:16:17;;;;;;;8.90;7.90;;;;;;;19.53;68.95;100534.96;228722;1203;139910;-74
2021/09/13 11:21:37;;;;;;;8.40;7.70;;;;;;;19.75;67.98;100540.94;227676;1209;138987;-76
2021/09/13 11:26:47;;;;;;;9.60;8.40;;;;;;;20.52;66.44;100538.27;227752;1204;138296;-75
2021/09/13 11:32:00;;;;;;;9.70;8.90;;;;;;;20.84;64.13;100537.07;226873;1209;138419;-77
2021/09/13 11:37:26;;;;;;;6.30;5.70;;;;;;;20.98;61.40;100530.82;226866;1202;139575;-73
2021/09/13 11:42:33;;;;;;;6.50;5.90;;;;;;;20.78;61.16;100525.83;227882;1209;138687;-74
2021/09/13 11:47:36;;;;;;;6.70;6.10;;;;;;;21.05;61.16;100525.05;227479;1209;139497;-74
2021/09/13 11:52:39;;;;;;;7.40;6.70;;;;;;;21.46;60.63;100523.98;227135;1202;138541;-73
2021/09/13 11:57:45;;;;;;;7.30;6.60;;;;;;;21.71;60.32;100519.98;227596;1207;138607;-73
2021/09/13 12:03:10;;;;;;;5.50;5.10;;;;;;;23.28;54.59;100517.98;226859;1210;138994;-74
2021/09/13 12:08:17;;;;;;;5.30;4.40;;;;;;;23.70;51.50;100519.80;227481;1210;138947;-73
2021/09/13 12:13:22;;;;;;;11.10;10.10;;;;;;;22.10;54.86;100518.80;226861;1209;138636;-76
2021/09/13 12:18:30;;;;;;;8.00;7.00;;;;;;;21.78;57.21;100519.29;227326;1209;139153;-76
2021/09/13 12:23:33;;;;;;;7.60;7.00;;;;;;;21.38;58.64;100514.33;227860;1205;138902;-71
2021/09/13 12:28:36;;;;;;;13.50;12.30;;;;;;;21.15;60.30;100510.14;227154;1203;138996;-76
2021/09/13 12:33:39;;;;;;;6.60;6.00;;;;;;;20.95;60.99;100508.48;227476;1203;138879;-74
2021/09/13 12:38:43;;;;;;;6.00;5.50;;;;;;;21.15;60.59;100503.44;227582;1203;139155;-73
2021/09/13 12:43:45;;;;;;;6.20;5.60;;;;;;;21.65;58.35;100504.67;227055;1203;138498;-76
2021/09/13 12:48:49;;;;;;;6.20;5.50;;;;;;;21.66;58.41;100501.54;227979;1210;140468;-71
2021/09/13 12:53:59;;;;;;;4.70;4.40;;;;;;;21.57;57.80;100501.82;227863;1202;138801;-75
2021/09/13 12:59:11;;;;;;;4.40;3.90;;;;;;;21.23;57.15;100507.34;227356;1202;139180;-73
2021/09/13 13:04:16;;;;;;;4.80;4.20;;;;;;;21.04;54.18;100504.14;227742;1201;138896;-76
2021/09/13 13:09:18;;;;;;;4.90;4.20;;;;;;;21.02;55.17;100506.27;227815;1204;138681;-74
2021/09/13 13:14:20;;;;;;;4.50;4.10;;;;;;;21.03;57.01;100503.70;227830;1202;138580;-76
2021/09/13 13:19:21;;;;;;;5.70;5.10;;;;;;;20.83;56.92;100505.21;227746;1202;138915;-76
2021/09/13 13:24:23;;;;;;;8.00;4.50;;;;;;;20.60;58.29;100508.39;227842;1204;138636;-75
2021/09/13 13:29:25;;;;;;;9.50;5.70;;;;;;;20.31;61.29;100520.90;227738;1205;138235;-74
2021/09/13 13:34:29;;;;;;;13.70;7.40;;;;;;;19.85;68.55;100532.84;227293;1202;138452;-73
2021/09/13 13:39:31;;;;;;;13.00;7.10;;;;;;;19.46;70.86;100524.21;228187;1201;139190;-77
2021/09/13 13:44:33;;;;;;;10.40;7.90;;;;;;;19.34;73.53;100522.33;227778;1209;139216;-73
2021/09/13 13:49:34;;;;;;;11.00;7.50;;;;;;;19.29;76.27;100521.21;227841;1202;139004;-75
2021/09/13 13:54:36;;;;;;;8.70;7.10;;;;;;;19.40;74.94;100516.91;227240;1209;139877;-73
2021/09/13 13:59:38;;;;;;;7.50;6.80;;;;;;;19.73;73.18;100517.09;227748;1202;139268;-75
2021/09/13 14:04:39;;;;;;;6.30;5.70;;;;;;;19.86;73.34;100518.19;227856;1210;138769;-75
2021/09/13 14:09:41;;;;;;;7.70;5.80;;;;;;;19.94;71.22;100517.45;227084;1202;138578;-73
2021/09/13 14:14:43;;;;;;;6.30;5.70;;;;;;;19.86;69.22;100517.45;227836;1201;138814;-75
2021/09/13 14:19:45;;;;;;;5.00;4.60;;;;;;;19.81;68.18;100518.98;227749;1206;138873;-75
2021/09/13 14:24:46;;;;;;;4.80;4.40;;;;;;;19.78;64.39;100515.63;227816;1202;138429;-74
2021/09/13 14:29:48;;;;;;;5.10;4.70;;;;;;;19.92;64.40;100519.64;227836;1202;138894;-77
2021/09/13 14:34:50;;;;;;;5.50;5.00;;;;;;;20.03;64.58;100529.64;227627;1210;138687;-72
2021/09/13 14:39:52;;;;;;;6.30;5.70;;;;;;;20.08;64.38;100527.39;228382;1206;138402;-73
2021/09/13 14:44:54;;;;;;;6.50;5.80;;;;;;;20.04;64.55;100527.24;227615;1210;138458;-74
2021/09/13 14:49:55;;;;;;;6.30;5.70;;;;;;;20.01;66.24;100527.05;227089;1206;138074;-72
2021/09/13 14:54:57;;;;;;;6.60;6.00;;;;;;;20.03;66.46;100532.33;227800;1206;138591;-74
2021/09/13 14:59:59;;;;;;;7.10;6.40;;;;;;;20.02;65.83;100533.31;227659;1202;138700;-74
2021/09/13 15:05:01;;;;;;;6.80;6.10;;;;;;;20.03;65.13;100540.09;227740;1202;139617;-74
2021/09/13 15:10:03;;;;;;;7.00;6.50;;;;;;;20.11;64.40;100542.48;227419;1209;139391;-74
2021/09/13 15:15:06;;;;;;;8.30;7.10;;;;;;;20.19;63.79;100539.73;227412;1210;138459;-73
2021/09/13 15:20:09;;;;;;;6.00;5.50;;;;;;;20.15;63.25;100535.79;227112;1201;138635;-73
2021/09/13 15:25:11;;;;;;;6.50;5.90;;;;;;;20.15;62.27;100532.19;227973;1201;138524;-74
2021/09/13 15:30:15;;;;;;;6.90;6.30;;;;;;;20.05;62.41;100535.58;227455;1202;138623;-73
2021/09/13 15:35:16;;;;;;;6.70;6.20;;;;;;;19.97;62.61;100534.58;227813;1205;139304;-77
2021/09/13 15:40:18;;;;;;;6.80;6.10;;;;;;;20.00;63.19;100528.23;227865;1201;138574;-76
2021/09/13 15:45:20;;;;;;;6.50;5.90;;;;;;;20.00;63.90;100528.29;227006;1209;138969;-75
2021/09/13 15:50:22;;;;;;;6.30;5.70;;;;;;;20.01;62.75;100531.71;227765;1202;142280;-75
2021/09/13 15:55:24;;;;;;;6.00;5.40;;;;;;;20.07;61.89;100532.33;227740;1201;138794;-74
2021/09/13 16:00:25;;;;;;;6.10;5.60;;;;;;;20.10;61.68;100535.97;227271;1201;138574;-78
2021/09/13 16:05:27;;;;;;;6.10;5.60;;;;;;;20.01;61.53;100541.28;227896;1202;139255;-74
2021/09/13 16:10:29;;;;;;;5.60;5.20;;;;;;;19.86;61.68;100538.94;227784;1206;138471;-74
2021/09/13 16:15:30;;;;;;;6.00;5.50;;;;;;;19.71;62.32;100540.16;227829;1201;139075;-76
2021/09/13 16:20:32;;;;;;;5.80;5.30;;;;;;;19.64;62.92;100541.38;227926;1201;138629;-73
2021/09/13 16:25:34;;;;;;;7.50;6.20;;;;;;;19.58;62.76;100545.56;228064;1210;138241;-75
2021/09/13 16:30:36;;;;;;;6.30;5.80;;;;;;;19.56;63.34;100547.80;227721;1205;139000;-76
2021/09/13 16:35:40;;;;;;;7.60;6.50;;;;;;;19.51;63.67;100548.63;227434;1210;139040;-75
2021/09/13 16:40:43;;;;;;;7.80;6.50;;;;;;;19.45;63.66;100547.55;227858;1202;138188;-73
2021/09/13 16:45:44;;;;;;;7.10;6.40;;;;;;;19.31;64.06;100550.73;227868;1201;138708;-72
2021/09/13 16:50:46;;;;;;;7.60;6.60;;;;;;;19.18;64.48;100548.46;227426;1206;138512;-75
2021/09/13 16:55:48;;;;;;;7.80;6.90;;;;;;;19.02;65.25;100546.72;227735;1201;138459;-74
2021/09/13 17:00:49;;;;;;;7.40;6.10;;;;;;;18.86;66.25;100545.79;227824;1201;139296;-73
2021/09/13 17:05:51;;;;;;;7.10;6.50;;;;;;;18.72;66.63;100554.04;227865;1209;138419;-74
2021/09/13 17:10:53;;;;;;;9.30;6.90;;;;;;;18.67;66.25;100564.13;227797;1201;139056;-76
2021/09/13 17:15:55;;;;;;;9.80;8.90;;;;;;;18.69;65.52;100566.20;228585;1202;138796;-74
2021/09/13 17:20:57;;;;;;;10.30;7.80;;;;;;;18.73;64.87;100574.35;228843;1201;138359;-72
2021/09/13 17:25:59;;;;;;;6.10;5.60;;;;;;;18.69;65.17;100580.05;227999;1201;138714;-75
2021/09/13 17:31:01;;;;;;;7.50;6.70;;;;;;;18.59;66.05;100578.02;227918;1210;138738;-71
2021/09/13 17:36:03;;;;;;;6.60;6.00;;;;;;;18.43;66.84;100585.01;227919;1205;138255;-74
2021/09/13 17:41:07;;;;;;;6.90;5.70;;;;;;;18.32;67.24;100592.20;227414;1211;138132;-71
2021/09/13 17:46:09;;;;;;;8.40;6.10;;;;;;;18.14;68.41;100596.85;227406;1202;138327;-74
2021/09/13 17:51:11;;;;;;;9.30;5.90;;;;;;;17.98;69.22;100599.30;227827;1210;139398;-74
2021/09/13 17:56:14;;;;;;;6.90;6.20;;;;;;;17.92;69.51;100599.92;227514;1202;138506;-74
2021/09/13 18:01:18;;;;;;;6.50;5.90;;;;;;;17.90;69.83;100605.34;227902;1210;138636;-73
2021/09/13 18:06:20;;;;;;;6.70;5.80;;;;;;;17.85;69.90;100607.04;228303;1202;138733;-74
2021/09/13 18:11:24;;;;;;;7.60;5.60;;;;;;;17.69;70.27;100613.12;227743;1202;138683;-73
2021/09/13 18:16:26;;;;;;;5.60;5.10;;;;;;;17.49;71.11;100614.75;227978;1201;138564;-75
2021/09/13 18:21:28;;;;;;;10.10;5.70;;;;;;;17.36;71.92;100614.27;227878;1202;138159;-74
2021/09/13 18:26:29;;;;;;;8.30;6.50;;;;;;;17.27;72.40;100617.56;227679;1202;139180;-74
2021/09/13 18:31:31;;;;;;;8.20;5.70;;;;;;;17.22;73.36;100626.64;227940;1202;139131;-75
2021/09/13 18:36:33;;;;;;;7.00;6.30;;;;;;;17.10;74.06;100632.11;227919;1201;138645;-75
2021/09/13 18:41:36;;;;;;;7.10;6.40;;;;;;;17.04;74.42;100634.05;227748;1206;138566;-76
2021/09/13 18:46:37;;;;;;;6.10;5.50;;;;;;;16.86;75.26;100633.45;227811;1206;139321;-74
2021/09/13 18:51:40;;;;;;;6.70;6.00;;;;;;;16.73;75.99;100643.17;227926;1209;138751;-76
2021/09/13 18:56:42;;;;;;;7.40;5.90;;;;;;;16.65;75.69;100644.13;227966;1201;139657;-73
2021/09/13 19:01:44;;;;;;;7.40;5.80;;;;;;;16.64;75.38;100649.77;227983;1206;139021;-74
2021/09/13 19:06:46;;;;;;;6.30;5.30;;;;;;;16.67;75.39;100651.71;227577;1206;139300;-76
2021/09/13 19:11:48;;;;;;;7.30;5.40;;;;;;;16.61;75.32;100654.09;227864;1203;138864;-75
2021/09/13 19:16:50;;;;;;;8.40;5.40;;;;;;;16.41;76.42;100658.31;227900;1203;138834;-73
2021/09/13 19:21:51;;;;;;;6.90;5.20;;;;;;;16.31;76.98;100663.25;227650;1201;138146;-75
2021/09/13 19:26:53;;;;;;;8.80;5.10;;;;;;;16.33;76.61;100668.79;227076;1209;139390;-73
2021/09/13 19:31:55;;;;;;;6.20;5.60;;;;;;;16.41;75.51;100676.61;227477;1209;138451;-74
2021/09/13 19:36:57;;;;;;;5.90;5.30;;;;;;;16.39;75.00;100681.80;227723;1206;138631;-71
2021/09/13 19:41:59;;;;;;;6.20;5.70;;;;;;;16.19;76.17;100686.92;226873;1204;139190;-73
2021/09/13 19:47:01;;;;;;;5.70;5.20;;;;;;;16.08;76.27;100691.39;227690;1209;138684;-73
2021/09/13 19:52:03;;;;;;;6.20;5.70;;;;;;;16.03;76.62;100697.14;227473;1202;138576;-73
2021/09/13 19:57:05;;;;;;;8.30;5.70;;;;;;;15.99;76.73;100696.05;227812;1201;139592;-74
2021/09/13 20:02:10;;;;;;;6.10;5.50;;;;;;;16.02;76.44;100697.61;227935;1201;139516;-73
2021/09/13 20:07:12;;;;;;;;;;;;;;;15.94;77.13;100698.96;227930;1202;138747;-74
2021/09/13 20:12:14;;;;;;;6.80;5.70;;;;;;;15.89;77.23;100700.34;227105;1203;125200;-72
2021/09/13 20:17:16;;;;;;;6.80;6.20;;;;;;;15.84;77.59;100708.44;227499;1204;138382;-76
2021/09/13 20:22:18;;;;;;;6.80;6.20;;;;;;;15.82;77.31;100713.85;227141;1202;139239;-72
2021/09/13 20:27:19;;;;;;;7.90;6.50;;;;;;;15.87;75.97;100713.41;227372;1202;138488;-75
2021/09/13 20:32:21;;;;;;;7.80;6.80;;;;;;;15.93;75.76;100707.89;227296;1201;138649;-76
2021/09/13 20:37:22;;;;;;;7.80;6.50;;;;;;;15.89;75.73;100710.83;227576;1201;138440;-74
2021/09/13 20:42:24;;;;;;;17.20;12.30;;;;;;;15.98;75.00;100711.24;227794;1210;138834;-74
2021/09/13 20:47:26;;;;;;;8.20;7.30;;;;;;;15.94;75.08;100719.93;227114;1209;139274;-74
2021/09/13 20:52:28;;;;;;;7.90;7.10;;;;;;;15.92;75.20;100720.66;227246;1204;139284;-74
2021/09/13 20:57:30;;;;;;;7.40;6.40;;;;;;;15.79;75.85;100722.17;227170;1209;138794;-73
2021/09/13 21:02:32;;;;;;;7.80;7.10;;;;;;;15.71;76.14;100724.30;227732;1209;139180;-73
2021/09/13 21:07:35;;;;;;;8.40;7.60;;;;;;;15.72;75.87;100722.59;227118;1201;138358;-76
2021/09/13 21:12:37;;;;;;;9.10;8.20;;;;;;;15.64;76.18;100720.70;227819;1201;139276;-73
2021/09/13 21:17:38;;;;;;;8.60;7.70;;;;;;;15.67;75.94;100719.46;227967;1201;138967;-75
2021/09/13 21:22:40;;;;;;;8.20;7.50;;;;;;;15.62;76.02;100724.28;227831;1201;138774;-73
2021/09/13 21:27:42;;;;;;;7.70;7.00;;;;;;;15.64;75.73;100719.23;228098;1202;138814;-74
2021/09/13 21:32:44;;;;;;;10.10;7.70;;;;;;;15.57;76.44;100726.91;227978;1209;138419;-77
2021/09/13 21:37:45;;;;;;;9.20;8.10;;;;;;;15.50;76.94;100732.95;228022;1204;139439;-74
2021/09/13 21:42:47;;;;;;;8.40;7.60;;;;;;;15.42;77.36;100733.72;227486;1201;139283;-74
2021/09/13 21:47:49;;;;;;;10.60;7.70;;;;;;;15.37;77.65;100729.27;226842;1209;139058;-72
2021/09/13 21:52:51;;;;;;;9.60;7.10;;;;;;;15.37;77.20;100730.20;227056;1209;138735;-72
2021/09/13 21:57:53;;;;;;;8.80;7.90;;;;;;;15.20;78.08;100738.23;227058;1203;138653;-77
2021/09/13 22:02:54;;;;;;;9.10;7.40;;;;;;;15.12;78.33;100746.98;227092;1209;138942;-74
2021/09/13 22:07:56;;;;;;;8.70;7.80;;;;;;;15.13;78.52;100751.20;226889;1209;139583;-77
2021/09/13 22:12:58;;;;;;;8.20;7.40;;;;;;;15.11;78.83;100759.84;227459;1209;139093;-74
2021/09/13 22:17:59;;;;;;;8.30;7.20;;;;;;;15.06;78.93;100763.98;227854;1209;138113;-78
2021/09/13 22:23:01;;;;;;;8.90;7.50;;;;;;;14.93;79.45;100763.94;227792;1202;138384;-74
2021/09/13 22:28:03;;;;;;;9.40;8.10;;;;;;;14.93;79.59;100758.20;227814;1210;140415;-74
2021/09/13 22:33:05;;;;;;;9.20;8.00;;;;;;;14.95;79.09;100763.02;227760;1204;139374;-74
2021/09/13 22:38:07;;;;;;;9.90;7.40;;;;;;;14.83;79.57;100763.52;227545;1202;138790;-75
2021/09/13 22:43:09;;;;;;;8.60;7.30;;;;;;;14.75;79.99;100767.78;227273;1201;138770;-73
2021/09/13 22:48:10;;;;;;;13.20;8.40;;;;;;;14.76;80.04;100768.05;226923;1209;139169;-73
2021/09/13 22:53:12;;;;;;;8.60;7.70;;;;;;;14.79;80.00;100766.81;226868;1202;139836;-73